sensor_id;sensor_type;location;lat;lon;timestamp;temperature;humidity
12268;DHT22;6196;48.398;11.736;2023-07-29T00:01:37;18.00;99.90
12268;DHT22;6196;48.398;11.736;2023-07-29T00:04:08;18.00;99.90
12268;DHT22;6196;48.398;11.736;2023-07-29T00:06:36;17.90;99.90
12268;DHT22;6196;48.398;11.736;2023-07-29T00:09:03;17.90;99.90
12268;DHT22;6196;48.398;11.736;2023-07-29T00:11:30;17.90;99.90
12268;DHT22;6196;48.398;11.736;2023-07-29T00:14:00;17.90;99.90
12268;DHT22;6196;48.398;11.736;2023-07-29T00:16:27;17.80;99.90
12268;DHT22;6196;48.398;11.736;2023-07-29T00:18:54;17.80;99.90
12268;DHT22;6196;48.398;11.736;2023-07-29T00:21:21;17.80;99.90
12268;DHT22;6196;48.398;11.736;2023-07-29T00:23:48;17.80;99.90
12268;DHT22;6196;48.398;11.736;2023-07-29T00:26:15;17.80;99.90
12268;DHT22;6196;48.398;11.736;2023-07-29T00:28:42;17.70;99.90
12268;DHT22;6196;48.398;11.736;2023-07-29T00:31:09;17.70;99.90
12268;DHT22;6196;48.398;11.736;2023-07-29T00:33:37;17.70;99.90
12268;DHT22;6196;48.398;11.736;2023-07-29T00:36:04;17.60;99.90
12268;DHT22;6196;48.398;11.736;2023-07-29T00:38:31;17.70;99.90
12268;DHT22;6196;48.398;11.736;2023-07-29T00:40:58;17.70;99.90
12268;DHT22;6196;48.398;11.736;2023-07-29T00:43:26;17.70;99.90
12268;DHT22;6196;48.398;11.736;2023-07-29T00:45:53;17.70;99.90
12268;DHT22;6196;48.398;11.736;2023-07-29T00:48:20;17.70;99.90
12268;DHT22;6196;48.398;11.736;2023-07-29T00:50:48;17.60;99.90
12268;DHT22;6196;48.398;11.736;2023-07-29T00:53:15;17.50;99.90
12268;DHT22;6196;48.398;11.736;2023-07-29T00:55:42;17.50;99.90
12268;DHT22;6196;48.398;11.736;2023-07-29T00:58:10;17.40;99.90
12268;DHT22;6196;48.398;11.736;2023-07-29T01:00:37;17.40;99.90
12268;DHT22;6196;48.398;11.736;2023-07-29T01:03:04;17.30;99.90
12268;DHT22;6196;48.398;11.736;2023-07-29T01:05:58;17.30;99.90
12268;DHT22;6196;48.398;11.736;2023-07-29T01:11:30;17.20;99.90
12268;DHT22;6196;48.398;11.736;2023-07-29T01:14:11;17.10;99.90
12268;DHT22;6196;48.398;11.736;2023-07-29T01:17:00;17.10;99.90
12268;DHT22;6196;48.398;11.736;2023-07-29T01:20:01;17.00;99.90
12268;DHT22;6196;48.398;11.736;2023-07-29T01:22:35;16.90;99.90
12268;DHT22;6196;48.398;11.736;2023-07-29T01:25:03;16.90;99.90
12268;DHT22;6196;48.398;11.736;2023-07-29T01:27:31;16.90;99.90
12268;DHT22;6196;48.398;11.736;2023-07-29T01:29:58;16.80;99.90
12268;DHT22;6196;48.398;11.736;2023-07-29T01:32:35;16.80;99.90
12268;DHT22;6196;48.398;11.736;2023-07-29T01:37:51;16.60;99.90
12268;DHT22;6196;48.398;11.736;2023-07-29T01:40:22;16.50;99.90
12268;DHT22;6196;48.398;11.736;2023-07-29T01:42:50;16.40;99.90
12268;DHT22;6196;48.398;11.736;2023-07-29T01:45:18;16.40;99.90
12268;DHT22;6196;48.398;11.736;2023-07-29T01:47:45;16.30;99.90
12268;DHT22;6196;48.398;11.736;2023-07-29T01:50:12;16.30;99.90
12268;DHT22;6196;48.398;11.736;2023-07-29T01:52:39;16.20;99.90
12268;DHT22;6196;48.398;11.736;2023-07-29T01:55:06;16.10;99.90
12268;DHT22;6196;48.398;11.736;2023-07-29T01:57:33;16.10;99.90
12268;DHT22;6196;48.398;11.736;2023-07-29T02:00:00;16.00;99.90
12268;DHT22;6196;48.398;11.736;2023-07-29T02:02:27;16.00;99.90
12268;DHT22;6196;48.398;11.736;2023-07-29T02:04:54;15.90;99.90
12268;DHT22;6196;48.398;11.736;2023-07-29T02:07:22;16.00;99.90
12268;DHT22;6196;48.398;11.736;2023-07-29T02:09:49;16.00;99.90
12268;DHT22;6196;48.398;11.736;2023-07-29T02:12:16;15.90;99.90
12268;DHT22;6196;48.398;11.736;2023-07-29T02:14:43;15.90;99.90
12268;DHT22;6196;48.398;11.736;2023-07-29T02:17:10;15.90;99.90
12268;DHT22;6196;48.398;11.736;2023-07-29T02:19:37;15.90;99.90
12268;DHT22;6196;48.398;11.736;2023-07-29T02:22:04;15.80;99.90
12268;DHT22;6196;48.398;11.736;2023-07-29T02:24:31;15.80;99.90
12268;DHT22;6196;48.398;11.736;2023-07-29T02:26:58;15.80;99.90
12268;DHT22;6196;48.398;11.736;2023-07-29T02:29:25;15.80;99.90
12268;DHT22;6196;48.398;11.736;2023-07-29T02:31:52;15.80;99.90
12268;DHT22;6196;48.398;11.736;2023-07-29T02:34:19;15.80;99.90
12268;DHT22;6196;48.398;11.736;2023-07-29T02:36:46;15.80;99.90
12268;DHT22;6196;48.398;11.736;2023-07-29T02:39:13;15.80;99.90
12268;DHT22;6196;48.398;11.736;2023-07-29T02:41:40;15.80;99.90
12268;DHT22;6196;48.398;11.736;2023-07-29T02:44:06;15.70;99.90
12268;DHT22;6196;48.398;11.736;2023-07-29T02:46:33;15.70;99.90
12268;DHT22;6196;48.398;11.736;2023-07-29T02:49:04;15.70;99.90
12268;DHT22;6196;48.398;11.736;2023-07-29T02:51:31;15.70;99.90
12268;DHT22;6196;48.398;11.736;2023-07-29T02:53:58;15.70;99.90
12268;DHT22;6196;48.398;11.736;2023-07-29T02:56:25;15.70;99.90
12268;DHT22;6196;48.398;11.736;2023-07-29T02:58:52;15.70;99.90
12268;DHT22;6196;48.398;11.736;2023-07-29T03:01:19;15.60;99.90
12268;DHT22;6196;48.398;11.736;2023-07-29T03:03:46;15.70;99.90
12268;DHT22;6196;48.398;11.736;2023-07-29T03:06:14;15.50;99.90
12268;DHT22;6196;48.398;11.736;2023-07-29T03:08:42;15.50;99.90
12268;DHT22;6196;48.398;11.736;2023-07-29T03:11:11;15.60;99.90
12268;DHT22;6196;48.398;11.736;2023-07-29T03:13:39;15.60;99.90
12268;DHT22;6196;48.398;11.736;2023-07-29T03:16:16;15.60;99.90
12268;DHT22;6196;48.398;11.736;2023-07-29T03:18:44;15.50;99.90
12268;DHT22;6196;48.398;11.736;2023-07-29T03:21:11;15.40;99.90
12268;DHT22;6196;48.398;11.736;2023-07-29T03:23:38;15.40;99.90
12268;DHT22;6196;48.398;11.736;2023-07-29T03:26:05;15.30;99.90
12268;DHT22;6196;48.398;11.736;2023-07-29T03:28:39;15.30;99.90
12268;DHT22;6196;48.398;11.736;2023-07-29T03:31:10;15.30;99.90
12268;DHT22;6196;48.398;11.736;2023-07-29T03:33:37;15.30;99.90
12268;DHT22;6196;48.398;11.736;2023-07-29T03:36:04;15.40;99.90
12268;DHT22;6196;48.398;11.736;2023-07-29T03:38:31;15.30;99.90
12268;DHT22;6196;48.398;11.736;2023-07-29T03:41:01;15.30;99.90
12268;DHT22;6196;48.398;11.736;2023-07-29T03:43:29;15.30;99.90
12268;DHT22;6196;48.398;11.736;2023-07-29T03:45:56;15.40;99.90
12268;DHT22;6196;48.398;11.736;2023-07-29T03:48:23;15.30;99.90
12268;DHT22;6196;48.398;11.736;2023-07-29T03:50:50;15.30;99.90
12268;DHT22;6196;48.398;11.736;2023-07-29T03:53:17;15.30;99.90
12268;DHT22;6196;48.398;11.736;2023-07-29T03:55:44;15.30;99.90
12268;DHT22;6196;48.398;11.736;2023-07-29T03:58:12;15.50;99.90
12268;DHT22;6196;48.398;11.736;2023-07-29T04:00:39;15.40;99.90
12268;DHT22;6196;48.398;11.736;2023-07-29T04:03:06;15.40;99.90
12268;DHT22;6196;48.398;11.736;2023-07-29T04:05:33;15.50;99.90
12268;DHT22;6196;48.398;11.736;2023-07-29T04:08:00;15.70;99.90
12268;DHT22;6196;48.398;11.736;2023-07-29T04:10:27;15.70;99.90
12268;DHT22;6196;48.398;11.736;2023-07-29T04:12:54;15.80;99.90
12268;DHT22;6196;48.398;11.736;2023-07-29T04:15:20;15.90;99.90
12268;DHT22;6196;48.398;11.736;2023-07-29T04:17:50;15.80;99.90
12268;DHT22;6196;48.398;11.736;2023-07-29T04:20:17;15.90;99.90
12268;DHT22;6196;48.398;11.736;2023-07-29T04:22:44;15.90;99.90
12268;DHT22;6196;48.398;11.736;2023-07-29T04:25:11;16.00;99.90
12268;DHT22;6196;48.398;11.736;2023-07-29T04:27:39;16.10;99.90
12268;DHT22;6196;48.398;11.736;2023-07-29T04:30:07;16.10;99.90
12268;DHT22;6196;48.398;11.736;2023-07-29T04:32:34;16.20;99.90
12268;DHT22;6196;48.398;11.736;2023-07-29T04:35:01;16.20;99.90
12268;DHT22;6196;48.398;11.736;2023-07-29T04:37:28;16.20;99.90
12268;DHT22;6196;48.398;11.736;2023-07-29T04:39:55;16.20;99.90
12268;DHT22;6196;48.398;11.736;2023-07-29T04:42:22;16.10;99.90
12268;DHT22;6196;48.398;11.736;2023-07-29T04:44:52;16.10;99.90
12268;DHT22;6196;48.398;11.736;2023-07-29T04:47:19;16.10;99.90
12268;DHT22;6196;48.398;11.736;2023-07-29T04:49:46;16.10;99.90
12268;DHT22;6196;48.398;11.736;2023-07-29T04:52:13;16.10;99.90
12268;DHT22;6196;48.398;11.736;2023-07-29T04:54:41;16.00;99.90
12268;DHT22;6196;48.398;11.736;2023-07-29T04:57:08;16.10;99.90
12268;DHT22;6196;48.398;11.736;2023-07-29T04:59:35;16.20;99.90
12268;DHT22;6196;48.398;11.736;2023-07-29T05:02:03;16.30;99.90
12268;DHT22;6196;48.398;11.736;2023-07-29T05:04:30;16.50;99.90
12268;DHT22;6196;48.398;11.736;2023-07-29T05:06:57;16.60;99.90
12268;DHT22;6196;48.398;11.736;2023-07-29T05:09:24;16.70;99.90
12268;DHT22;6196;48.398;11.736;2023-07-29T05:11:54;16.90;99.90
12268;DHT22;6196;48.398;11.736;2023-07-29T05:14:21;16.90;99.90
12268;DHT22;6196;48.398;11.736;2023-07-29T05:16:48;17.10;99.90
12268;DHT22;6196;48.398;11.736;2023-07-29T05:19:15;17.20;99.90
12268;DHT22;6196;48.398;11.736;2023-07-29T05:21:42;17.30;99.90
12268;DHT22;6196;48.398;11.736;2023-07-29T05:24:09;17.30;99.90
12268;DHT22;6196;48.398;11.736;2023-07-29T05:26:36;17.30;99.90
12268;DHT22;6196;48.398;11.736;2023-07-29T05:29:04;17.40;99.90
12268;DHT22;6196;48.398;11.736;2023-07-29T05:31:31;17.10;99.90
12268;DHT22;6196;48.398;11.736;2023-07-29T05:33:58;17.20;99.90
12268;DHT22;6196;48.398;11.736;2023-07-29T05:36:25;17.50;99.90
12268;DHT22;6196;48.398;11.736;2023-07-29T05:38:52;17.70;99.90
12268;DHT22;6196;48.398;11.736;2023-07-29T05:41:20;17.90;99.90
12268;DHT22;6196;48.398;11.736;2023-07-29T05:43:47;18.10;99.90
12268;DHT22;6196;48.398;11.736;2023-07-29T05:46:14;18.30;99.90
12268;DHT22;6196;48.398;11.736;2023-07-29T05:48:41;18.40;99.90
12268;DHT22;6196;48.398;11.736;2023-07-29T05:51:08;18.30;99.90
12268;DHT22;6196;48.398;11.736;2023-07-29T05:53:35;18.20;99.90
12268;DHT22;6196;48.398;11.736;2023-07-29T05:56:02;18.30;99.90
12268;DHT22;6196;48.398;11.736;2023-07-29T05:58:29;18.60;99.90
12268;DHT22;6196;48.398;11.736;2023-07-29T06:00:58;18.50;99.90
12268;DHT22;6196;48.398;11.736;2023-07-29T06:03:25;18.60;99.90
12268;DHT22;6196;48.398;11.736;2023-07-29T06:05:52;18.80;99.90
12268;DHT22;6196;48.398;11.736;2023-07-29T06:08:20;18.90;99.90
12268;DHT22;6196;48.398;11.736;2023-07-29T06:10:47;18.80;99.90
12268;DHT22;6196;48.398;11.736;2023-07-29T06:13:14;18.90;99.90
12268;DHT22;6196;48.398;11.736;2023-07-29T06:15:41;19.20;99.90
12268;DHT22;6196;48.398;11.736;2023-07-29T06:18:08;19.30;99.90
12268;DHT22;6196;48.398;11.736;2023-07-29T06:20:35;19.50;99.90
12268;DHT22;6196;48.398;11.736;2023-07-29T06:23:03;19.30;99.90
12268;DHT22;6196;48.398;11.736;2023-07-29T06:25:30;19.50;99.90
12268;DHT22;6196;48.398;11.736;2023-07-29T06:27:57;19.60;99.90
12268;DHT22;6196;48.398;11.736;2023-07-29T06:30:25;19.70;99.90
12268;DHT22;6196;48.398;11.736;2023-07-29T06:32:52;19.60;99.90
12268;DHT22;6196;48.398;11.736;2023-07-29T06:35:19;19.60;99.90
12268;DHT22;6196;48.398;11.736;2023-07-29T06:37:46;19.90;99.90
12268;DHT22;6196;48.398;11.736;2023-07-29T06:40:13;20.20;99.90
12268;DHT22;6196;48.398;11.736;2023-07-29T06:42:40;20.40;99.90
12268;DHT22;6196;48.398;11.736;2023-07-29T06:45:08;20.10;99.90
12268;DHT22;6196;48.398;11.736;2023-07-29T06:47:35;20.40;99.90
12268;DHT22;6196;48.398;11.736;2023-07-29T06:50:02;20.70;99.90
12268;DHT22;6196;48.398;11.736;2023-07-29T06:52:29;21.00;99.90
12268;DHT22;6196;48.398;11.736;2023-07-29T06:54:56;21.20;99.90
12268;DHT22;6196;48.398;11.736;2023-07-29T06:57:23;21.30;99.90
12268;DHT22;6196;48.398;11.736;2023-07-29T06:59:50;21.20;99.90
12268;DHT22;6196;48.398;11.736;2023-07-29T07:02:17;20.80;99.90
12268;DHT22;6196;48.398;11.736;2023-07-29T07:04:43;20.30;99.90
12268;DHT22;6196;48.398;11.736;2023-07-29T07:07:10;20.30;99.90
12268;DHT22;6196;48.398;11.736;2023-07-29T07:09:37;20.30;99.90
12268;DHT22;6196;48.398;11.736;2023-07-29T07:12:04;20.20;99.90
12268;DHT22;6196;48.398;11.736;2023-07-29T07:14:32;20.00;99.90
12268;DHT22;6196;48.398;11.736;2023-07-29T07:16:59;19.90;99.90
12268;DHT22;6196;48.398;11.736;2023-07-29T07:19:26;19.60;99.90
12268;DHT22;6196;48.398;11.736;2023-07-29T07:21:53;19.70;99.90
12268;DHT22;6196;48.398;11.736;2023-07-29T07:24:19;19.70;99.90
12268;DHT22;6196;48.398;11.736;2023-07-29T07:26:46;19.70;99.90
12268;DHT22;6196;48.398;11.736;2023-07-29T07:29:13;19.70;99.90
12268;DHT22;6196;48.398;11.736;2023-07-29T07:31:40;19.70;99.90
12268;DHT22;6196;48.398;11.736;2023-07-29T07:34:07;19.80;99.90
12268;DHT22;6196;48.398;11.736;2023-07-29T07:36:34;19.70;99.90
12268;DHT22;6196;48.398;11.736;2023-07-29T07:39:02;19.70;99.90
12268;DHT22;6196;48.398;11.736;2023-07-29T07:41:29;19.60;99.90
12268;DHT22;6196;48.398;11.736;2023-07-29T07:43:56;19.70;99.90
12268;DHT22;6196;48.398;11.736;2023-07-29T07:46:23;19.80;99.90
12268;DHT22;6196;48.398;11.736;2023-07-29T07:48:50;19.80;99.90
12268;DHT22;6196;48.398;11.736;2023-07-29T07:51:17;19.90;99.90
12268;DHT22;6196;48.398;11.736;2023-07-29T07:53:44;20.00;99.90
12268;DHT22;6196;48.398;11.736;2023-07-29T07:56:11;20.20;99.90
12268;DHT22;6196;48.398;11.736;2023-07-29T07:58:40;20.30;99.90
12268;DHT22;6196;48.398;11.736;2023-07-29T08:01:08;20.40;99.90
12268;DHT22;6196;48.398;11.736;2023-07-29T08:03:35;20.40;99.90
12268;DHT22;6196;48.398;11.736;2023-07-29T08:06:02;20.50;99.90
12268;DHT22;6196;48.398;11.736;2023-07-29T08:08:30;20.50;99.90
12268;DHT22;6196;48.398;11.736;2023-07-29T08:10:57;20.60;99.90
12268;DHT22;6196;48.398;11.736;2023-07-29T08:13:24;20.70;99.90
12268;DHT22;6196;48.398;11.736;2023-07-29T08:15:52;20.70;99.90
12268;DHT22;6196;48.398;11.736;2023-07-29T08:18:20;20.70;99.90
12268;DHT22;6196;48.398;11.736;2023-07-29T08:20:58;21.00;99.90
12268;DHT22;6196;48.398;11.736;2023-07-29T08:23:30;21.10;99.90
12268;DHT22;6196;48.398;11.736;2023-07-29T08:25:59;21.00;99.90
12268;DHT22;6196;48.398;11.736;2023-07-29T08:28:30;20.80;99.90
12268;DHT22;6196;48.398;11.736;2023-07-29T08:30:57;21.00;99.90
12268;DHT22;6196;48.398;11.736;2023-07-29T08:33:25;21.20;99.90
12268;DHT22;6196;48.398;11.736;2023-07-29T08:35:52;21.40;99.90
12268;DHT22;6196;48.398;11.736;2023-07-29T08:38:19;21.50;99.90
12268;DHT22;6196;48.398;11.736;2023-07-29T08:40:57;21.50;99.90
12268;DHT22;6196;48.398;11.736;2023-07-29T08:43:52;21.60;99.90
12268;DHT22;6196;48.398;11.736;2023-07-29T08:46:26;21.60;99.90
12268;DHT22;6196;48.398;11.736;2023-07-29T08:48:53;21.50;99.90
12268;DHT22;6196;48.398;11.736;2023-07-29T08:51:23;21.50;99.90
12268;DHT22;6196;48.398;11.736;2023-07-29T08:53:50;21.70;99.90
12268;DHT22;6196;48.398;11.736;2023-07-29T08:56:17;22.00;99.90
12268;DHT22;6196;48.398;11.736;2023-07-29T08:58:44;22.20;99.90
12268;DHT22;6196;48.398;11.736;2023-07-29T09:01:15;22.30;99.90
12268;DHT22;6196;48.398;11.736;2023-07-29T09:03:42;22.00;99.90
12268;DHT22;6196;48.398;11.736;2023-07-29T09:06:09;21.70;99.90
12268;DHT22;6196;48.398;11.736;2023-07-29T09:08:37;21.80;99.90
12268;DHT22;6196;48.398;11.736;2023-07-29T09:11:04;21.90;99.90
12268;DHT22;6196;48.398;11.736;2023-07-29T09:13:32;22.50;99.90
12268;DHT22;6196;48.398;11.736;2023-07-29T09:15:59;22.80;99.90
12268;DHT22;6196;48.398;11.736;2023-07-29T09:18:27;22.70;99.90
12268;DHT22;6196;48.398;11.736;2023-07-29T09:20:59;22.60;99.90
12268;DHT22;6196;48.398;11.736;2023-07-29T09:23:39;23.00;99.90
12268;DHT22;6196;48.398;11.736;2023-07-29T09:26:08;23.30;99.90
12268;DHT22;6196;48.398;11.736;2023-07-29T09:28:37;23.50;99.90
12268;DHT22;6196;48.398;11.736;2023-07-29T09:31:05;23.50;99.90
12268;DHT22;6196;48.398;11.736;2023-07-29T09:33:42;23.80;99.90
12268;DHT22;6196;48.398;11.736;2023-07-29T09:36:10;24.40;99.90
12268;DHT22;6196;48.398;11.736;2023-07-29T09:38:37;24.50;99.90
12268;DHT22;6196;48.398;11.736;2023-07-29T09:41:04;24.40;99.90
12268;DHT22;6196;48.398;11.736;2023-07-29T09:43:33;24.30;99.90
12268;DHT22;6196;48.398;11.736;2023-07-29T09:46:04;24.60;99.90
12268;DHT22;6196;48.398;11.736;2023-07-29T09:48:35;24.40;99.90
12268;DHT22;6196;48.398;11.736;2023-07-29T09:51:13;24.70;99.90
12268;DHT22;6196;48.398;11.736;2023-07-29T09:53:43;24.80;99.90
12268;DHT22;6196;48.398;11.736;2023-07-29T09:56:16;24.90;99.90
12268;DHT22;6196;48.398;11.736;2023-07-29T09:58:44;24.80;99.90
12268;DHT22;6196;48.398;11.736;2023-07-29T10:01:13;25.00;99.90
12268;DHT22;6196;48.398;11.736;2023-07-29T10:03:40;24.60;99.90
12268;DHT22;6196;48.398;11.736;2023-07-29T10:06:09;24.70;99.90
12268;DHT22;6196;48.398;11.736;2023-07-29T10:08:37;24.80;99.90
12268;DHT22;6196;48.398;11.736;2023-07-29T10:11:07;24.60;99.90
12268;DHT22;6196;48.398;11.736;2023-07-29T10:13:37;24.60;99.90
12268;DHT22;6196;48.398;11.736;2023-07-29T10:16:04;25.10;99.90
12268;DHT22;6196;48.398;11.736;2023-07-29T10:18:33;25.30;99.90
12268;DHT22;6196;48.398;11.736;2023-07-29T10:21:01;25.50;99.90
12268;DHT22;6196;48.398;11.736;2023-07-29T10:23:34;25.70;99.90
12268;DHT22;6196;48.398;11.736;2023-07-29T10:26:07;26.10;99.90
12268;DHT22;6196;48.398;11.736;2023-07-29T10:28:40;26.00;99.90
12268;DHT22;6196;48.398;11.736;2023-07-29T10:31:08;25.40;99.90
12268;DHT22;6196;48.398;11.736;2023-07-29T10:33:36;25.50;99.90
12268;DHT22;6196;48.398;11.736;2023-07-29T10:36:04;26.20;99.90
12268;DHT22;6196;48.398;11.736;2023-07-29T10:38:31;25.70;99.90
12268;DHT22;6196;48.398;11.736;2023-07-29T10:40:59;26.20;99.90
12268;DHT22;6196;48.398;11.736;2023-07-29T10:43:34;26.10;99.90
12268;DHT22;6196;48.398;11.736;2023-07-29T10:46:21;25.60;99.90
12268;DHT22;6196;48.398;11.736;2023-07-29T10:48:56;23.80;99.90
12268;DHT22;6196;48.398;11.736;2023-07-29T10:51:25;22.70;99.90
12268;DHT22;6196;48.398;11.736;2023-07-29T10:53:58;22.00;99.90
12268;DHT22;6196;48.398;11.736;2023-07-29T10:56:32;21.80;99.90
12268;DHT22;6196;48.398;11.736;2023-07-29T11:01:56;20.60;99.90
12268;DHT22;6196;48.398;11.736;2023-07-29T11:04:29;20.10;99.90
12268;DHT22;6196;48.398;11.736;2023-07-29T11:12:48;18.70;99.90
12268;DHT22;6196;48.398;11.736;2023-07-29T11:18:00;18.50;99.90
12268;DHT22;6196;48.398;11.736;2023-07-29T11:20:32;18.70;99.90
12268;DHT22;6196;48.398;11.736;2023-07-29T11:23:02;18.70;99.90
12268;DHT22;6196;48.398;11.736;2023-07-29T11:25:30;18.80;99.90
12268;DHT22;6196;48.398;11.736;2023-07-29T11:27:58;18.90;99.90
12268;DHT22;6196;48.398;11.736;2023-07-29T11:30:29;19.10;99.90
12268;DHT22;6196;48.398;11.736;2023-07-29T11:32:58;19.40;99.90
12268;DHT22;6196;48.398;11.736;2023-07-29T11:35:25;19.70;99.90
12268;DHT22;6196;48.398;11.736;2023-07-29T11:37:54;20.10;99.90
12268;DHT22;6196;48.398;11.736;2023-07-29T11:40:23;20.30;99.90
12268;DHT22;6196;48.398;11.736;2023-07-29T11:42:52;20.80;99.90
12268;DHT22;6196;48.398;11.736;2023-07-29T11:45:20;21.10;99.90
12268;DHT22;6196;48.398;11.736;2023-07-29T11:47:51;21.50;99.90
12268;DHT22;6196;48.398;11.736;2023-07-29T11:50:18;21.90;99.90
12268;DHT22;6196;48.398;11.736;2023-07-29T11:52:46;22.50;99.90
12268;DHT22;6196;48.398;11.736;2023-07-29T11:55:14;23.20;99.90
12268;DHT22;6196;48.398;11.736;2023-07-29T11:57:42;23.70;99.90
12268;DHT22;6196;48.398;11.736;2023-07-29T12:00:11;24.40;99.90
12268;DHT22;6196;48.398;11.736;2023-07-29T12:02:41;25.00;99.90
12268;DHT22;6196;48.398;11.736;2023-07-29T12:05:12;25.30;99.90
12268;DHT22;6196;48.398;11.736;2023-07-29T12:07:42;25.80;99.90
12268;DHT22;6196;48.398;11.736;2023-07-29T12:10:11;25.70;99.90
12268;DHT22;6196;48.398;11.736;2023-07-29T12:12:48;26.20;99.90
12268;DHT22;6196;48.398;11.736;2023-07-29T12:15:26;26.50;99.90
12268;DHT22;6196;48.398;11.736;2023-07-29T12:17:55;27.00;99.90
12268;DHT22;6196;48.398;11.736;2023-07-29T12:20:24;26.90;99.90
12268;DHT22;6196;48.398;11.736;2023-07-29T12:22:53;26.80;99.90
12268;DHT22;6196;48.398;11.736;2023-07-29T12:25:22;26.60;99.90
12268;DHT22;6196;48.398;11.736;2023-07-29T12:27:49;26.40;99.90
12268;DHT22;6196;48.398;11.736;2023-07-29T12:30:20;26.00;99.90
12268;DHT22;6196;48.398;11.736;2023-07-29T12:32:51;25.70;99.90
12268;DHT22;6196;48.398;11.736;2023-07-29T12:35:19;25.90;99.90
12268;DHT22;6196;48.398;11.736;2023-07-29T12:37:46;26.00;99.90
12268;DHT22;6196;48.398;11.736;2023-07-29T12:40:26;26.10;99.90
12268;DHT22;6196;48.398;11.736;2023-07-29T12:42:54;26.00;99.90
12268;DHT22;6196;48.398;11.736;2023-07-29T12:45:21;25.80;99.90
12268;DHT22;6196;48.398;11.736;2023-07-29T12:47:55;25.60;99.90
12268;DHT22;6196;48.398;11.736;2023-07-29T12:50:23;25.60;99.90
12268;DHT22;6196;48.398;11.736;2023-07-29T12:52:50;25.40;99.90
12268;DHT22;6196;48.398;11.736;2023-07-29T12:55:17;24.80;99.90
12268;DHT22;6196;48.398;11.736;2023-07-29T12:57:47;24.60;99.90
12268;DHT22;6196;48.398;11.736;2023-07-29T13:00:14;25.00;99.90
12268;DHT22;6196;48.398;11.736;2023-07-29T13:02:41;25.50;99.90
12268;DHT22;6196;48.398;11.736;2023-07-29T13:05:11;26.30;99.90
12268;DHT22;6196;48.398;11.736;2023-07-29T13:07:39;26.40;99.90
12268;DHT22;6196;48.398;11.736;2023-07-29T13:10:07;26.50;99.90
12268;DHT22;6196;48.398;11.736;2023-07-29T13:12:35;27.20;99.90
12268;DHT22;6196;48.398;11.736;2023-07-29T13:15:02;28.00;99.90
12268;DHT22;6196;48.398;11.736;2023-07-29T13:17:29;28.60;99.90
12268;DHT22;6196;48.398;11.736;2023-07-29T13:19:56;28.50;99.90
12268;DHT22;6196;48.398;11.736;2023-07-29T13:22:23;28.20;99.90
12268;DHT22;6196;48.398;11.736;2023-07-29T13:24:50;27.30;99.90
12268;DHT22;6196;48.398;11.736;2023-07-29T13:27:17;26.70;99.90
12268;DHT22;6196;48.398;11.736;2023-07-29T13:29:44;26.20;99.90
12268;DHT22;6196;48.398;11.736;2023-07-29T13:32:12;26.00;99.90
12268;DHT22;6196;48.398;11.736;2023-07-29T13:34:39;25.80;99.90
12268;DHT22;6196;48.398;11.736;2023-07-29T13:37:06;25.60;99.90
12268;DHT22;6196;48.398;11.736;2023-07-29T13:39:33;25.70;99.90
12268;DHT22;6196;48.398;11.736;2023-07-29T13:42:00;25.70;99.90
12268;DHT22;6196;48.398;11.736;2023-07-29T13:44:28;25.70;99.90
12268;DHT22;6196;48.398;11.736;2023-07-29T13:46:55;25.90;99.90
12268;DHT22;6196;48.398;11.736;2023-07-29T13:49:22;26.00;99.90
12268;DHT22;6196;48.398;11.736;2023-07-29T13:51:49;26.00;99.90
12268;DHT22;6196;48.398;11.736;2023-07-29T13:54:16;26.00;99.90
12268;DHT22;6196;48.398;11.736;2023-07-29T13:56:44;26.10;99.90
12268;DHT22;6196;48.398;11.736;2023-07-29T13:59:11;26.50;99.90
12268;DHT22;6196;48.398;11.736;2023-07-29T14:01:38;26.70;99.90
12268;DHT22;6196;48.398;11.736;2023-07-29T14:04:05;27.50;99.90
12268;DHT22;6196;48.398;11.736;2023-07-29T14:06:32;27.60;99.90
12268;DHT22;6196;48.398;11.736;2023-07-29T14:09:11;27.70;99.90
12268;DHT22;6196;48.398;11.736;2023-07-29T14:11:38;27.80;99.90
12268;DHT22;6196;48.398;11.736;2023-07-29T14:14:06;28.40;99.90
12268;DHT22;6196;48.398;11.736;2023-07-29T14:16:33;28.30;99.90
12268;DHT22;6196;48.398;11.736;2023-07-29T14:19:01;27.60;99.90
12268;DHT22;6196;48.398;11.736;2023-07-29T14:21:28;26.80;99.90
12268;DHT22;6196;48.398;11.736;2023-07-29T14:23:55;26.20;99.90
12268;DHT22;6196;48.398;11.736;2023-07-29T14:26:22;25.20;99.90
12268;DHT22;6196;48.398;11.736;2023-07-29T14:28:49;25.10;99.90
12268;DHT22;6196;48.398;11.736;2023-07-29T14:31:16;24.10;99.90
12268;DHT22;6196;48.398;11.736;2023-07-29T14:33:44;23.80;99.90
12268;DHT22;6196;48.398;11.736;2023-07-29T14:36:11;23.90;99.90
12268;DHT22;6196;48.398;11.736;2023-07-29T14:38:38;24.10;99.90
12268;DHT22;6196;48.398;11.736;2023-07-29T14:41:05;24.30;99.90
12268;DHT22;6196;48.398;11.736;2023-07-29T14:43:32;24.50;99.90
12268;DHT22;6196;48.398;11.736;2023-07-29T14:45:59;24.50;99.90
12268;DHT22;6196;48.398;11.736;2023-07-29T14:48:26;24.30;99.90
12268;DHT22;6196;48.398;11.736;2023-07-29T14:50:53;24.00;99.90
12268;DHT22;6196;48.398;11.736;2023-07-29T14:53:20;23.90;99.90
12268;DHT22;6196;48.398;11.736;2023-07-29T14:55:47;23.50;99.90
12268;DHT22;6196;48.398;11.736;2023-07-29T14:58:14;23.30;99.90
12268;DHT22;6196;48.398;11.736;2023-07-29T15:00:41;23.30;99.90
12268;DHT22;6196;48.398;11.736;2023-07-29T15:03:08;23.00;99.90
12268;DHT22;6196;48.398;11.736;2023-07-29T15:05:35;22.70;99.90
12268;DHT22;6196;48.398;11.736;2023-07-29T15:08:02;22.50;99.90
12268;DHT22;6196;48.398;11.736;2023-07-29T15:10:29;22.50;99.90
12268;DHT22;6196;48.398;11.736;2023-07-29T15:12:56;22.60;99.90
12268;DHT22;6196;48.398;11.736;2023-07-29T15:15:24;22.50;99.90
12268;DHT22;6196;48.398;11.736;2023-07-29T15:17:51;22.50;99.90
12268;DHT22;6196;48.398;11.736;2023-07-29T15:20:18;22.40;99.90
12268;DHT22;6196;48.398;11.736;2023-07-29T15:22:45;22.20;99.90
12268;DHT22;6196;48.398;11.736;2023-07-29T15:25:12;21.90;99.90
12268;DHT22;6196;48.398;11.736;2023-07-29T15:27:39;21.60;99.90
12268;DHT22;6196;48.398;11.736;2023-07-29T15:30:06;21.30;99.90
12268;DHT22;6196;48.398;11.736;2023-07-29T15:32:34;21.10;99.90
12268;DHT22;6196;48.398;11.736;2023-07-29T15:35:01;20.90;99.90
12268;DHT22;6196;48.398;11.736;2023-07-29T15:37:28;20.70;99.90
12268;DHT22;6196;48.398;11.736;2023-07-29T15:39:55;20.70;99.90
12268;DHT22;6196;48.398;11.736;2023-07-29T15:42:22;20.40;99.90
12268;DHT22;6196;48.398;11.736;2023-07-29T15:44:49;20.30;99.90
12268;DHT22;6196;48.398;11.736;2023-07-29T15:47:16;20.30;99.90
12268;DHT22;6196;48.398;11.736;2023-07-29T15:49:45;20.20;99.90
12268;DHT22;6196;48.398;11.736;2023-07-29T15:52:12;20.20;99.90
12268;DHT22;6196;48.398;11.736;2023-07-29T15:54:42;20.00;99.90